Decoded Metar for KLHQ (LANCASTER in OH, USA) (IATA:LHQ) | Meteo·Mobile Aviation Weather
aviador You're here:

KLHQ Decoded Metar

LANCASTER in OH, USA
Report Time2019-04-24 13:53:00
UTC Time2019-04-24 14:12:29
Flight Rules vfr VFR
WindCalm
Visibility9999 m
Phenomena:N/A
Clouds:N/A
Expected CloudBase > 2,000 ft AGL from Temp-Dew spread
CeilingNone
Temp12°C (ISA -1)
Dew Point07°C (72% RH)
AAT11.3°C
QNH1017 hPa
Density Alt702 ft
Elevation853 ft
Report Wrong Elevation
Raw Report
KLHQ 241353Z AUTO 00000KT 10SM CLR 12/07 A3004 RMK AO2 SLP171
T01170067=

Extra information for KLHQ:More info

Metar Taf Metar & Taf Last 4 Metars F.Rules Stats Wind Profile Meteogram Temp Stats Airport Information Weather charts Add Link Nearby VenuesMetar ALERT Operation Metar Decoded Social comments

AIRNAV info for KLHQ